createdAt,value
2017-05-26T00:00:49.289Z,56.22
2017-05-26T00:01:50.707Z,56.51
2017-05-26T00:02:53.820Z,56.12
2017-05-26T00:03:58.716Z,55.93
2017-05-26T00:05:01.191Z,55.83
2017-05-26T00:06:02.606Z,56.22
2017-05-26T00:07:04.027Z,56.12
2017-05-26T00:08:05.445Z,56.70
2017-05-26T00:09:08.036Z,56.22
2017-05-26T00:10:11.254Z,56.22
2017-05-26T00:11:14.982Z,56.51
2017-05-26T00:12:19.313Z,55.45
2017-05-26T00:13:22.262Z,56.12
2017-05-26T00:14:24.650Z,56.51
2017-05-26T00:15:28.296Z,56.22
2017-05-26T00:16:29.711Z,55.55
2017-05-26T00:17:31.144Z,56.12
2017-05-26T00:18:32.561Z,55.83
2017-05-26T00:19:33.982Z,55.65
2017-05-26T00:20:35.406Z,55.83
2017-05-26T00:21:36.818Z,55.45
2017-05-26T00:22:38.230Z,55.45
2017-05-26T00:23:39.649Z,55.55
2017-05-26T00:24:41.065Z,55.93
2017-05-26T00:25:42.492Z,55.83
2017-05-26T00:26:43.911Z,55.45
2017-05-26T00:27:45.329Z,55.55
2017-05-26T00:28:46.745Z,55.45
2017-05-26T00:29:48.166Z,55.45
2017-05-26T00:30:49.585Z,55.45
2017-05-26T00:31:50.999Z,55.45
2017-05-26T00:32:52.416Z,55.35
2017-05-26T00:33:53.843Z,55.74
2017-05-26T00:34:55.260Z,55.35
2017-05-26T00:35:56.680Z,54.97
2017-05-26T00:36:58.096Z,55.16
2017-05-26T00:37:59.513Z,55.45
2017-05-26T00:39:00.952Z,55.55
2017-05-26T00:40:02.367Z,55.55
2017-05-26T00:41:03.789Z,55.55
2017-05-26T00:42:05.209Z,54.30
2017-05-26T00:43:06.627Z,54.97
2017-05-26T00:44:08.032Z,55.16
2017-05-26T00:45:09.485Z,55.16
2017-05-26T00:46:10.901Z,55.16
2017-05-26T00:47:12.324Z,55.45
2017-05-26T00:48:13.771Z,54.87
2017-05-26T00:49:15.171Z,55.55
2017-05-26T00:50:16.614Z,55.26
2017-05-26T00:51:18.019Z,55.65
2017-05-26T00:52:19.445Z,55.65
2017-05-26T00:53:20.881Z,55.45
2017-05-26T00:54:22.326Z,55.55
2017-05-26T00:55:23.746Z,55.55
2017-05-26T00:56:25.155Z,55.83
2017-05-26T00:57:26.571Z,55.35
2017-05-26T00:58:28.010Z,55.45
2017-05-26T00:59:29.439Z,55.55
2017-05-26T01:00:30.865Z,55.83
2017-05-26T01:01:32.291Z,55.55
2017-05-26T01:02:33.695Z,55.35
2017-05-26T01:03:35.117Z,55.45
2017-05-26T01:04:36.525Z,55.55
2017-05-26T01:05:37.957Z,55.35
2017-05-26T01:06:39.365Z,55.16
2017-05-26T01:07:40.782Z,55.65
2017-05-26T01:08:42.196Z,55.45
2017-05-26T01:09:43.615Z,55.55
2017-05-26T01:10:45.044Z,55.65
2017-05-26T01:11:46.449Z,55.55
2017-05-26T01:12:47.880Z,55.65
2017-05-26T01:13:49.294Z,55.83
2017-05-26T01:14:50.718Z,55.65
2017-05-26T01:15:52.163Z,55.45
2017-05-26T01:16:53.583Z,55.55
2017-05-26T01:17:54.994Z,55.65
2017-05-26T01:18:56.411Z,55.55
2017-05-26T01:19:57.841Z,55.65
2017-05-26T01:20:59.262Z,55.35
2017-05-26T01:22:00.678Z,55.55
2017-05-26T01:23:02.098Z,55.45
2017-05-26T01:24:03.508Z,55.55
2017-05-26T01:25:04.924Z,55.07
2017-05-26T01:26:06.340Z,55.55
2017-05-26T01:27:07.752Z,55.45
2017-05-26T01:28:09.170Z,55.45
2017-05-26T01:29:10.586Z,55.55
2017-05-26T01:30:12.018Z,55.45
2017-05-26T01:31:13.443Z,55.65
2017-05-26T01:32:14.862Z,55.65
2017-05-26T01:33:16.279Z,55.93
2017-05-26T01:34:17.716Z,55.65
2017-05-26T01:35:19.127Z,55.65
2017-05-26T01:36:20.549Z,55.83
2017-05-26T01:37:21.970Z,55.55
2017-05-26T01:38:23.393Z,55.35
2017-05-26T01:39:24.807Z,55.74
2017-05-26T01:40:26.222Z,55.52
2017-05-26T01:41:27.652Z,55.45
2017-05-26T01:42:29.066Z,55.55
2017-05-26T01:43:30.492Z,55.65
2017-05-26T01:44:31.918Z,55.45
2017-05-26T01:45:33.338Z,55.43
2017-05-26T01:46:34.759Z,55.65
2017-05-26T01:47:36.169Z,55.45
2017-05-26T01:48:37.589Z,55.43
2017-05-26T01:49:39.001Z,55.45
2017-05-26T01:50:40.418Z,55.43
2017-05-26T01:51:41.837Z,55.83
2017-05-26T01:52:43.252Z,55.71
2017-05-26T01:53:44.668Z,55.90
2017-05-26T01:54:46.081Z,55.65
2017-05-26T01:55:47.497Z,55.52
2017-05-26T01:56:48.912Z,55.43
2017-05-26T01:57:50.350Z,55.83
2017-05-26T01:58:51.770Z,55.45
2017-05-26T01:59:53.187Z,55.52
2017-05-26T02:00:54.609Z,54.97
2017-05-26T02:01:56.019Z,54.75
2017-05-26T02:02:57.430Z,54.10
2017-05-26T02:03:58.845Z,54.20
2017-05-26T02:05:00.283Z,54.17
2017-05-26T02:06:01.734Z,54.17
2017-05-26T02:07:03.151Z,54.00
2017-05-26T02:08:04.566Z,54.17
2017-05-26T02:09:05.982Z,54.27
2017-05-26T02:10:07.397Z,53.88
2017-05-26T02:11:08.819Z,53.88
2017-05-26T02:12:10.247Z,53.88
2017-05-26T02:13:11.657Z,53.98
2017-05-26T02:14:13.074Z,54.36
2017-05-26T02:15:14.485Z,53.78
2017-05-26T02:16:15.912Z,54.10
2017-05-26T02:17:17.321Z,54.00
2017-05-26T02:18:18.739Z,54.10
2017-05-26T02:19:20.149Z,53.98
2017-05-26T02:20:21.586Z,53.98
2017-05-26T02:21:23.013Z,54.00
2017-05-26T02:22:24.417Z,53.91
2017-05-26T02:23:25.835Z,54.00
2017-05-26T02:24:27.262Z,53.78
2017-05-26T02:25:28.685Z,54.17
2017-05-26T02:26:30.114Z,54.10
2017-05-26T02:27:31.522Z,53.98
2017-05-26T02:28:32.937Z,54.20
2017-05-26T02:29:34.349Z,53.98
2017-05-26T02:30:35.768Z,53.98
2017-05-26T02:31:37.180Z,54.00
2017-05-26T02:32:38.604Z,54.10
2017-05-26T02:33:40.023Z,53.98
2017-05-26T02:34:41.451Z,54.00
2017-05-26T02:35:42.871Z,53.88
2017-05-26T02:36:44.284Z,53.81
2017-05-26T02:37:45.701Z,54.17
2017-05-26T02:38:47.126Z,54.00
2017-05-26T02:39:48.540Z,54.17
2017-05-26T02:40:49.973Z,54.10
2017-05-26T02:41:51.404Z,53.98
2017-05-26T02:42:52.824Z,53.88
2017-05-26T02:43:54.239Z,54.20
2017-05-26T02:44:55.685Z,54.10
2017-05-26T02:45:57.092Z,53.88
2017-05-26T02:46:58.521Z,53.98
2017-05-26T02:47:59.944Z,54.00
2017-05-26T02:49:01.363Z,54.75
2017-05-26T02:50:02.779Z,54.87
2017-05-26T02:51:04.197Z,55.23
2017-05-26T02:52:05.611Z,55.16
2017-05-26T02:53:07.032Z,54.94
2017-05-26T02:54:08.446Z,54.75
2017-05-26T02:55:09.880Z,54.49
2017-05-26T02:56:11.309Z,54.46
2017-05-26T02:57:12.727Z,54.75
2017-05-26T02:58:14.145Z,54.75
2017-05-26T02:59:15.573Z,55.04
2017-05-26T03:00:16.986Z,55.16
2017-05-26T03:01:18.403Z,54.75
2017-05-26T03:02:19.822Z,55.04
2017-05-26T03:03:21.242Z,54.36
2017-05-26T03:04:22.657Z,54.36
2017-05-26T03:05:24.071Z,54.17
2017-05-26T03:06:25.484Z,53.98
2017-05-26T03:07:26.902Z,54.10
2017-05-26T03:08:28.328Z,53.50
2017-05-26T03:09:29.741Z,53.98
2017-05-26T03:10:31.160Z,53.59
2017-05-26T03:11:32.569Z,53.78
2017-05-26T03:12:33.989Z,53.40
2017-05-26T03:13:35.405Z,53.78
2017-05-26T03:14:36.818Z,53.72
2017-05-26T03:15:38.233Z,54.08
2017-05-26T03:16:39.685Z,54.17
2017-05-26T03:17:41.113Z,54.08
2017-05-26T03:18:42.541Z,53.50
2017-05-26T03:19:43.945Z,53.98
2017-05-26T03:20:45.365Z,53.50
2017-05-26T03:21:46.787Z,53.59
2017-05-26T03:22:48.204Z,53.50
2017-05-26T03:23:49.622Z,53.50
2017-05-26T03:24:51.045Z,54.08
2017-05-26T03:25:52.468Z,53.98
2017-05-26T03:26:53.883Z,53.50
2017-05-26T03:27:55.312Z,53.78
2017-05-26T03:28:56.724Z,53.50
2017-05-26T03:29:58.141Z,53.88
2017-05-26T03:30:59.552Z,53.59
2017-05-26T03:32:00.975Z,53.50
2017-05-26T03:33:02.385Z,53.50
2017-05-26T03:34:03.836Z,53.69
2017-05-26T03:35:05.253Z,53.40
2017-05-26T03:36:06.669Z,53.21
2017-05-26T03:37:08.105Z,53.11
2017-05-26T03:38:09.522Z,53.21
2017-05-26T03:39:10.945Z,52.63
2017-05-26T03:40:12.362Z,53.21
2017-05-26T03:41:13.776Z,52.83
2017-05-26T03:42:15.189Z,52.73
2017-05-26T03:43:16.617Z,53.11
2017-05-26T03:44:18.076Z,52.92
2017-05-26T03:45:19.492Z,52.85
2017-05-26T03:46:20.972Z,53.11
2017-05-26T03:47:22.326Z,53.69
2017-05-26T03:48:23.745Z,52.63
2017-05-26T03:49:25.163Z,52.92
2017-05-26T03:50:26.580Z,52.83
2017-05-26T03:51:27.999Z,53.11
2017-05-26T03:52:29.418Z,52.92
2017-05-26T03:53:30.839Z,53.02
2017-05-26T03:54:32.271Z,53.11
2017-05-26T03:55:33.685Z,53.02
2017-05-26T03:56:35.105Z,52.73
2017-05-26T03:57:36.522Z,53.02
2017-05-26T03:58:37.940Z,52.83
2017-05-26T03:59:39.362Z,53.11
2017-05-26T04:00:40.778Z,52.92
2017-05-26T04:01:42.199Z,53.02
2017-05-26T04:02:43.618Z,52.83
2017-05-26T04:03:45.039Z,53.11
2017-05-26T04:04:46.457Z,52.63
2017-05-26T04:05:47.888Z,52.34
2017-05-26T04:06:49.298Z,52.44
2017-05-26T04:07:50.730Z,52.44
2017-05-26T04:08:52.147Z,52.56
2017-05-26T04:09:53.589Z,52.83
2017-05-26T04:10:55.000Z,52.44
2017-05-26T04:11:56.435Z,52.15
2017-05-26T04:12:57.855Z,52.34
2017-05-26T04:13:59.291Z,52.47
2017-05-26T04:15:00.703Z,52.44
2017-05-26T04:16:02.119Z,53.02
2017-05-26T04:17:03.545Z,52.34
2017-05-26T04:18:04.968Z,52.34
2017-05-26T04:19:06.388Z,52.08
2017-05-26T04:20:07.818Z,52.25
2017-05-26T04:21:09.227Z,52.56
2017-05-26T04:22:10.649Z,52.25
2017-05-26T04:23:12.069Z,52.25
2017-05-26T04:24:13.492Z,52.25
2017-05-26T04:25:14.910Z,52.25
2017-05-26T04:26:16.362Z,52.27
2017-05-26T04:27:17.761Z,52.34
2017-05-26T04:28:19.182Z,52.25
2017-05-26T04:29:20.647Z,52.27
2017-05-26T04:30:22.063Z,52.37
2017-05-26T04:31:23.489Z,52.15
2017-05-26T04:32:24.916Z,52.44
2017-05-26T04:33:26.340Z,52.37
2017-05-26T04:34:27.766Z,52.47
2017-05-26T04:35:29.182Z,52.25
2017-05-26T04:36:30.607Z,52.47
2017-05-26T04:37:32.050Z,52.27
2017-05-26T04:38:33.477Z,51.96
2017-05-26T04:39:34.908Z,52.15
2017-05-26T04:40:36.325Z,51.98
2017-05-26T04:41:37.752Z,52.18
2017-05-26T04:42:39.164Z,52.18
2017-05-26T04:43:40.584Z,51.98
2017-05-26T04:44:42.014Z,52.08
2017-05-26T04:45:43.438Z,51.98
2017-05-26T04:46:44.863Z,52.08
2017-05-26T04:47:46.298Z,52.18
2017-05-26T04:48:47.701Z,52.08
2017-05-26T04:49:49.122Z,52.08
2017-05-26T04:50:50.543Z,52.18
2017-05-26T04:51:51.963Z,52.08
2017-05-26T04:52:53.391Z,52.18
2017-05-26T04:53:54.805Z,52.18
2017-05-26T04:54:56.223Z,51.89
2017-05-26T04:55:57.656Z,51.89
2017-05-26T04:56:59.068Z,52.18
2017-05-26T04:58:00.496Z,51.98
2017-05-26T04:59:01.909Z,51.98
2017-05-26T05:00:03.329Z,52.18
2017-05-26T05:01:04.762Z,52.18
2017-05-26T05:02:06.182Z,52.18
2017-05-26T05:03:07.606Z,52.08
2017-05-26T05:04:09.026Z,51.89
2017-05-26T05:05:10.449Z,51.70
2017-05-26T05:06:11.866Z,51.89
2017-05-26T05:07:13.294Z,51.89
2017-05-26T05:08:14.786Z,51.70
2017-05-26T05:09:16.203Z,51.21
2017-05-26T05:10:17.626Z,51.41
2017-05-26T05:11:19.045Z,51.79
2017-05-26T05:12:20.481Z,51.41
2017-05-26T05:13:21.895Z,51.31
2017-05-26T05:14:23.312Z,51.31
2017-05-26T05:15:24.730Z,51.41
2017-05-26T05:16:26.152Z,51.50
2017-05-26T05:17:27.571Z,51.31
2017-05-26T05:18:29.030Z,51.41
2017-05-26T05:19:30.489Z,51.50
2017-05-26T05:20:31.926Z,51.72
2017-05-26T05:21:33.437Z,51.72
2017-05-26T05:22:34.855Z,51.79
2017-05-26T05:23:36.273Z,51.79
2017-05-26T05:24:37.694Z,51.70
2017-05-26T05:25:39.125Z,51.62
2017-05-26T05:26:40.542Z,52.08
2017-05-26T05:27:41.965Z,52.08
2017-05-26T05:28:43.384Z,51.89
2017-05-26T05:29:44.800Z,51.92
2017-05-26T05:30:46.226Z,52.11
2017-05-26T05:31:47.642Z,52.11
2017-05-26T05:32:49.060Z,52.20
2017-05-26T05:33:50.482Z,52.20
2017-05-26T05:34:51.897Z,51.82
2017-05-26T05:35:53.313Z,52.20
2017-05-26T05:36:54.734Z,51.92
2017-05-26T05:37:56.153Z,52.11
2017-05-26T05:38:57.578Z,52.01
2017-05-26T05:39:58.994Z,52.01
2017-05-26T05:41:00.416Z,52.01
2017-05-26T05:42:01.836Z,52.11
2017-05-26T05:43:03.251Z,52.01
2017-05-26T05:44:04.676Z,51.92
2017-05-26T05:45:06.092Z,52.01
2017-05-26T05:46:07.513Z,51.72
2017-05-26T05:47:08.930Z,51.72
2017-05-26T05:48:10.352Z,51.92
2017-05-26T05:49:11.785Z,51.92
2017-05-26T05:50:13.201Z,51.72
2017-05-26T05:51:14.634Z,51.92
2017-05-26T05:52:16.057Z,51.43
2017-05-26T05:53:17.475Z,51.92
2017-05-26T05:54:18.898Z,51.62
2017-05-26T05:55:21.870Z,51.53
2017-05-26T05:56:23.297Z,51.92
2017-05-26T05:57:27.372Z,51.62
2017-05-26T05:58:29.632Z,51.82
2017-05-26T05:59:33.659Z,52.01
2017-05-26T06:00:37.446Z,51.72
2017-05-26T06:01:41.523Z,51.62
2017-05-26T06:02:42.936Z,51.72
2017-05-26T06:03:44.353Z,51.72
2017-05-26T06:04:46.430Z,51.92
2017-05-26T06:05:50.873Z,51.72
2017-05-26T06:06:52.299Z,51.92
2017-05-26T06:07:56.414Z,52.20
2017-05-26T06:08:59.263Z,52.11
2017-05-26T06:10:00.696Z,51.92
2017-05-26T06:11:04.584Z,52.11
2017-05-26T06:12:06.693Z,52.11
2017-05-26T06:13:10.465Z,52.40
2017-05-26T06:14:13.029Z,52.59
2017-05-26T06:15:14.788Z,52.40
2017-05-26T06:16:16.241Z,52.40
2017-05-26T06:17:17.678Z,52.49
2017-05-26T06:18:21.462Z,52.40
2017-05-26T06:19:22.846Z,52.11
2017-05-26T06:20:24.292Z,52.30
2017-05-26T06:21:25.725Z,52.01
2017-05-26T06:22:27.156Z,52.49
2017-05-26T06:23:28.615Z,52.11
2017-05-26T06:24:30.053Z,52.40
2017-05-26T06:25:32.754Z,52.30
2017-05-26T06:26:34.166Z,52.30
2017-05-26T06:27:35.614Z,52.40
2017-05-26T06:28:38.890Z,52.61
2017-05-26T06:29:40.273Z,52.04
2017-05-26T06:30:41.682Z,51.94
2017-05-26T06:31:43.103Z,51.94
2017-05-26T06:32:44.834Z,53.27
2017-05-26T06:33:46.719Z,53.65
2017-05-26T06:34:48.135Z,54.22
2017-05-26T06:35:50.326Z,54.80
2017-05-26T06:36:51.918Z,55.65
2017-05-26T06:37:53.435Z,55.55
2017-05-26T06:38:54.849Z,56.22
2017-05-26T06:39:58.883Z,56.32
2017-05-26T06:41:03.158Z,56.90
2017-05-26T06:42:04.837Z,56.90
2017-05-26T06:43:08.069Z,57.09
2017-05-26T06:44:10.629Z,57.28
2017-05-26T06:45:15.462Z,56.80
2017-05-26T06:46:16.844Z,57.21
2017-05-26T06:47:18.268Z,56.73
2017-05-26T06:48:19.685Z,56.82
2017-05-26T06:49:21.102Z,56.73
2017-05-26T06:50:22.524Z,56.82
2017-05-26T06:51:26.644Z,56.63
2017-05-26T06:52:30.034Z,56.99
2017-05-26T06:53:31.455Z,57.18
2017-05-26T06:54:35.589Z,57.21
2017-05-26T06:55:38.502Z,57.47
2017-05-26T06:56:42.736Z,57.09
2017-05-26T06:57:44.921Z,56.92
2017-05-26T06:58:49.073Z,56.92
2017-05-26T06:59:52.528Z,57.89
2017-05-26T07:00:56.607Z,57.76
2017-05-26T07:01:57.988Z,58.08
2017-05-26T07:02:59.402Z,58.63
2017-05-26T07:04:00.826Z,58.37
2017-05-26T07:05:02.253Z,58.27
2017-05-26T07:06:06.690Z,58.27
2017-05-26T07:07:10.801Z,58.27
2017-05-26T07:08:12.224Z,57.79
2017-05-26T07:09:15.471Z,58.08
2017-05-26T07:10:17.194Z,58.08
2017-05-26T07:11:21.603Z,57.21
2017-05-26T07:12:24.215Z,57.21
2017-05-26T07:13:25.634Z,57.12
2017-05-26T07:14:27.094Z,56.66
2017-05-26T07:15:28.508Z,56.82
2017-05-26T07:16:29.928Z,57.14
2017-05-26T07:17:33.719Z,57.05
2017-05-26T07:18:35.133Z,56.76
2017-05-26T07:19:36.552Z,56.85
2017-05-26T07:20:37.978Z,57.21
2017-05-26T07:21:39.403Z,57.40
2017-05-26T07:22:41.604Z,56.73
2017-05-26T07:23:42.990Z,56.76
2017-05-26T07:24:44.411Z,56.66
2017-05-26T07:25:46.888Z,56.37
2017-05-26T07:26:48.308Z,57.34
2017-05-26T07:27:49.724Z,57.34
2017-05-26T07:28:52.342Z,56.57
2017-05-26T07:29:53.778Z,56.57
2017-05-26T07:30:55.237Z,56.95
2017-05-26T07:31:58.376Z,56.85
2017-05-26T07:32:59.842Z,57.05
2017-05-26T07:34:01.259Z,57.14
2017-05-26T07:35:05.743Z,57.14
2017-05-26T07:36:07.168Z,57.43
2017-05-26T07:37:08.713Z,57.14
2017-05-26T07:38:10.103Z,57.14
2017-05-26T07:39:11.549Z,57.24
2017-05-26T07:40:12.990Z,57.07
2017-05-26T07:41:14.409Z,57.14
2017-05-26T07:42:15.831Z,57.46
2017-05-26T07:43:17.257Z,56.66
2017-05-26T07:44:18.679Z,56.69
2017-05-26T07:45:20.120Z,56.88
2017-05-26T07:46:21.561Z,56.59
2017-05-26T07:47:22.977Z,56.59
2017-05-26T07:48:24.392Z,56.69
2017-05-26T07:49:25.819Z,56.69
2017-05-26T07:50:27.239Z,56.69
2017-05-26T07:51:28.674Z,56.69
2017-05-26T07:52:30.135Z,56.49
2017-05-26T07:53:31.557Z,56.59
2017-05-26T07:54:32.982Z,56.49
2017-05-26T07:55:34.409Z,57.27
2017-05-26T07:56:35.857Z,57.17
2017-05-26T07:57:37.286Z,56.69
2017-05-26T07:58:38.706Z,56.69
2017-05-26T07:59:40.127Z,56.04
2017-05-26T08:00:41.542Z,55.92
2017-05-26T08:01:42.970Z,56.59
2017-05-26T08:02:44.421Z,56.30
2017-05-26T08:03:45.842Z,55.24
2017-05-26T08:04:47.279Z,54.86
2017-05-26T08:05:48.768Z,54.28
2017-05-26T08:06:50.196Z,53.31
2017-05-26T08:07:51.621Z,53.61
2017-05-26T08:08:53.059Z,53.99
2017-05-26T08:09:54.481Z,53.99
2017-05-26T08:10:55.908Z,53.83
2017-05-26T08:11:57.352Z,53.25
2017-05-26T08:12:58.786Z,53.22
2017-05-26T08:14:00.221Z,53.15
2017-05-26T08:15:01.665Z,53.34
2017-05-26T08:16:03.087Z,53.05
2017-05-26T08:17:04.518Z,53.15
2017-05-26T08:18:05.933Z,53.25
2017-05-26T08:19:07.350Z,53.05
2017-05-26T08:20:08.793Z,53.15
2017-05-26T08:21:10.220Z,53.08
2017-05-26T08:22:11.644Z,52.86
2017-05-26T08:23:13.065Z,52.98
2017-05-26T08:24:14.499Z,53.47
2017-05-26T08:25:15.969Z,53.15
2017-05-26T08:26:18.121Z,53.75
2017-05-26T08:27:19.540Z,52.59
2017-05-26T08:28:21.581Z,52.40
2017-05-26T08:29:23.001Z,52.59
2017-05-26T08:30:24.519Z,52.11
2017-05-26T08:31:25.963Z,51.82
2017-05-26T08:32:27.452Z,51.34
2017-05-26T08:33:28.898Z,50.86
2017-05-26T08:34:30.363Z,51.73
2017-05-26T08:35:31.836Z,51.53
2017-05-26T08:36:33.330Z,51.92
2017-05-26T08:37:34.855Z,51.63
2017-05-26T08:38:36.305Z,50.79
2017-05-26T08:39:37.817Z,50.67
2017-05-26T08:40:39.396Z,50.67
2017-05-26T08:41:40.901Z,50.67
2017-05-26T08:42:42.321Z,50.96
2017-05-26T08:43:43.781Z,51.05
2017-05-26T08:44:45.276Z,50.86
2017-05-26T08:45:46.702Z,50.57
2017-05-26T08:46:48.359Z,50.67
2017-05-26T08:47:49.839Z,50.57
2017-05-26T08:48:53.520Z,50.86
2017-05-26T08:49:54.918Z,51.15
2017-05-26T08:50:59.239Z,51.63
2017-05-26T08:52:00.662Z,51.63
2017-05-26T08:53:04.485Z,51.73
2017-05-26T08:54:05.955Z,51.82
2017-05-26T08:55:07.371Z,51.37
2017-05-26T08:56:08.830Z,50.50
2017-05-26T08:57:10.329Z,50.59
2017-05-26T08:58:11.769Z,50.21
2017-05-26T08:59:15.651Z,50.11
2017-05-26T09:00:18.453Z,49.53
2017-05-26T09:01:20.191Z,50.31
2017-05-26T09:02:24.070Z,50.11
2017-05-26T09:03:25.514Z,50.40
2017-05-26T09:04:29.568Z,50.47
2017-05-26T09:05:33.881Z,50.76
2017-05-26T09:06:38.723Z,51.15
2017-05-26T09:07:41.440Z,50.86
2017-05-26T09:08:44.246Z,50.57
2017-05-26T09:09:45.695Z,50.86
2017-05-26T09:10:47.154Z,50.86
2017-05-26T09:11:48.618Z,51.15
2017-05-26T09:12:50.064Z,50.01
2017-05-26T09:13:51.497Z,49.92
2017-05-26T09:14:52.919Z,50.31
2017-05-26T09:15:54.373Z,49.53
2017-05-26T09:16:55.845Z,49.73
2017-05-26T09:17:57.300Z,49.34
2017-05-26T09:18:58.719Z,49.53
2017-05-26T09:20:01.860Z,49.53
2017-05-26T09:21:03.317Z,49.44
2017-05-26T09:22:04.745Z,49.53
2017-05-26T09:23:06.162Z,49.24
2017-05-26T09:24:07.601Z,49.44
2017-05-26T09:25:09.035Z,49.44
2017-05-26T09:26:10.484Z,49.73
2017-05-26T09:27:11.913Z,49.63
2017-05-26T09:28:13.348Z,49.27
2017-05-26T09:29:14.781Z,48.28
2017-05-26T09:30:16.199Z,47.60
2017-05-26T09:31:17.645Z,47.70
2017-05-26T09:32:19.736Z,47.80
2017-05-26T09:33:21.159Z,47.50
2017-05-26T09:34:22.596Z,48.18
2017-05-26T09:35:24.029Z,47.80
2017-05-26T09:36:25.460Z,48.18
2017-05-26T09:37:26.881Z,48.86
2017-05-26T09:38:28.304Z,48.66
2017-05-26T09:39:29.728Z,48.66
2017-05-26T09:40:31.204Z,48.86
2017-05-26T09:41:32.637Z,48.86
2017-05-26T09:42:34.089Z,48.37
2017-05-26T09:43:35.507Z,48.47
2017-05-26T09:44:36.923Z,48.86
2017-05-26T09:45:38.366Z,48.86
2017-05-26T09:46:39.787Z,48.66
2017-05-26T09:47:41.208Z,48.76
2017-05-26T09:48:42.629Z,49.53
2017-05-26T09:49:44.053Z,49.44
2017-05-26T09:50:45.481Z,49.15
2017-05-26T09:51:46.901Z,49.15
2017-05-26T09:52:48.427Z,48.57
2017-05-26T09:53:49.851Z,48.66
2017-05-26T09:54:51.270Z,49.34
2017-05-26T09:55:52.697Z,49.63
2017-05-26T09:56:54.136Z,49.53
2017-05-26T09:57:55.551Z,49.92
2017-05-26T09:58:56.992Z,50.11
2017-05-26T09:59:58.413Z,50.98
2017-05-26T10:00:59.835Z,50.40
2017-05-26T10:02:01.262Z,50.21
2017-05-26T10:03:02.742Z,50.31
2017-05-26T10:04:04.205Z,51.56
2017-05-26T10:05:05.669Z,50.59
2017-05-26T10:06:07.143Z,50.69
2017-05-26T10:07:08.591Z,50.59
2017-05-26T10:08:10.050Z,50.31
2017-05-26T10:09:11.595Z,50.01
2017-05-26T10:10:13.049Z,50.47
2017-05-26T10:11:14.519Z,50.67
2017-05-26T10:12:16.022Z,50.38
2017-05-26T10:13:17.480Z,50.28
2017-05-26T10:14:18.932Z,50.47
2017-05-26T10:15:20.384Z,50.38
2017-05-26T10:16:21.885Z,50.18
2017-05-26T10:17:23.377Z,50.38
2017-05-26T10:18:24.808Z,50.57
2017-05-26T10:19:26.235Z,50.47
2017-05-26T10:20:27.652Z,49.90
2017-05-26T10:21:29.128Z,49.99
2017-05-26T10:22:30.582Z,50.38
2017-05-26T10:23:32.030Z,50.47
2017-05-26T10:24:33.474Z,50.09
2017-05-26T10:25:34.955Z,49.90
2017-05-26T10:26:36.454Z,50.38
2017-05-26T10:27:37.889Z,49.51
2017-05-26T10:28:39.340Z,50.38
2017-05-26T10:29:40.793Z,49.70
2017-05-26T10:30:42.256Z,49.70
2017-05-26T10:31:43.702Z,49.90
2017-05-26T10:32:45.166Z,50.38
2017-05-26T10:33:46.671Z,50.57
2017-05-26T10:34:48.099Z,50.28
2017-05-26T10:35:49.539Z,49.99
2017-05-26T10:36:51.055Z,50.38
2017-05-26T10:37:52.501Z,50.86
2017-05-26T10:38:54.081Z,50.76
2017-05-26T10:39:55.504Z,50.38
2017-05-26T10:40:56.984Z,50.57
2017-05-26T10:41:58.426Z,50.38
2017-05-26T10:42:59.886Z,50.47
2017-05-26T10:44:01.333Z,50.09
2017-05-26T10:45:02.782Z,50.28
2017-05-26T10:46:04.235Z,50.67
2017-05-26T10:47:05.667Z,50.18
2017-05-26T10:48:07.113Z,50.09
2017-05-26T10:49:08.578Z,50.18
2017-05-26T10:50:10.037Z,50.09
2017-05-26T10:51:11.523Z,49.99
2017-05-26T10:52:12.978Z,49.99
2017-05-26T10:53:14.402Z,50.28
2017-05-26T10:54:15.843Z,50.18
2017-05-26T10:55:17.333Z,50.76
2017-05-26T10:56:18.809Z,50.09
2017-05-26T10:57:20.234Z,50.09
2017-05-26T10:58:21.671Z,50.18
2017-05-26T10:59:23.129Z,50.38
2017-05-26T11:00:24.570Z,49.90
2017-05-26T11:01:26.060Z,49.90
2017-05-26T11:02:27.472Z,49.80
2017-05-26T11:03:28.908Z,50.28
2017-05-26T11:04:30.384Z,50.18
2017-05-26T11:05:31.964Z,49.90
2017-05-26T11:06:33.398Z,50.09
2017-05-26T11:07:35.934Z,50.09
2017-05-26T11:08:37.465Z,50.18
2017-05-26T11:09:38.973Z,50.38
2017-05-26T11:10:40.409Z,50.18
2017-05-26T11:11:41.882Z,50.28
2017-05-26T11:12:43.432Z,50.09
2017-05-26T11:13:44.884Z,50.38
2017-05-26T11:14:46.356Z,50.09
2017-05-26T11:15:47.864Z,49.99
2017-05-26T11:16:49.334Z,50.09
2017-05-26T11:17:50.879Z,50.28
2017-05-26T11:18:52.285Z,50.18
2017-05-26T11:19:53.728Z,49.90
2017-05-26T11:20:55.189Z,50.09
2017-05-26T11:21:56.664Z,50.38
2017-05-26T11:22:58.187Z,50.47
2017-05-26T11:23:59.628Z,49.51
2017-05-26T11:25:01.063Z,49.70
2017-05-26T11:26:02.517Z,50.28
2017-05-26T11:27:03.965Z,50.38
2017-05-26T11:28:05.425Z,50.18
2017-05-26T11:29:06.861Z,49.70
2017-05-26T11:30:08.377Z,49.51
2017-05-26T11:31:09.773Z,49.70
2017-05-26T11:32:11.244Z,49.51
2017-05-26T11:33:12.652Z,49.51
2017-05-26T11:34:14.193Z,49.70
2017-05-26T11:35:15.611Z,49.70
2017-05-26T11:36:17.028Z,49.70
2017-05-26T11:37:18.459Z,49.60
2017-05-26T11:38:19.948Z,49.60
2017-05-26T11:39:21.404Z,49.80
2017-05-26T11:40:22.826Z,49.99
2017-05-26T11:41:24.281Z,49.60
2017-05-26T11:42:25.724Z,49.70
2017-05-26T11:43:27.149Z,49.70
2017-05-26T11:44:28.626Z,49.60
2017-05-26T11:45:30.154Z,49.60
2017-05-26T11:46:31.598Z,49.90
2017-05-26T11:47:33.046Z,49.60
2017-05-26T11:48:34.475Z,49.51
2017-05-26T11:49:35.900Z,49.70
2017-05-26T11:50:37.319Z,49.70
2017-05-26T11:51:38.753Z,49.60
2017-05-26T11:52:40.162Z,49.51
2017-05-26T11:53:41.626Z,49.70
2017-05-26T11:54:43.046Z,49.70
2017-05-26T11:55:44.472Z,49.70
2017-05-26T11:56:45.878Z,49.51
2017-05-26T11:57:47.307Z,49.70
2017-05-26T11:58:48.733Z,49.99
2017-05-26T11:59:50.152Z,49.70
2017-05-26T12:00:51.605Z,49.70
2017-05-26T12:01:53.049Z,49.60
2017-05-26T12:02:54.476Z,49.80
2017-05-26T12:03:55.896Z,49.70
2017-05-26T12:04:57.318Z,49.70
2017-05-26T12:05:58.757Z,49.80
2017-05-26T12:07:00.173Z,49.70
2017-05-26T12:08:01.597Z,49.60
2017-05-26T12:09:03.023Z,49.70
2017-05-26T12:10:04.438Z,49.70
2017-05-26T12:11:05.872Z,49.80
2017-05-26T12:12:07.300Z,49.70
2017-05-26T12:13:08.724Z,49.90
2017-05-26T12:14:10.150Z,49.99
2017-05-26T12:15:11.578Z,49.70
2017-05-26T12:16:13.055Z,49.70
2017-05-26T12:17:14.493Z,49.70
2017-05-26T12:18:15.964Z,49.60
2017-05-26T12:19:17.430Z,49.12
2017-05-26T12:20:18.839Z,49.70
2017-05-26T12:21:20.280Z,49.60
2017-05-26T12:22:21.749Z,49.32
2017-05-26T12:23:23.196Z,49.70
2017-05-26T12:24:24.635Z,49.32
2017-05-26T12:25:26.141Z,49.32
2017-05-26T12:26:27.557Z,49.32
2017-05-26T12:27:28.993Z,49.41
2017-05-26T12:28:30.405Z,49.32
2017-05-26T12:29:31.904Z,49.41
2017-05-26T12:30:33.358Z,49.32
2017-05-26T12:31:34.790Z,49.22
2017-05-26T12:32:36.242Z,49.90
2017-05-26T12:33:37.665Z,49.51
2017-05-26T12:34:39.122Z,49.32
2017-05-26T12:35:40.563Z,49.41
2017-05-26T12:36:42.004Z,49.41
2017-05-26T12:37:43.477Z,49.41
2017-05-26T12:38:44.907Z,49.51
2017-05-26T12:39:46.371Z,49.22
2017-05-26T12:40:47.802Z,49.41
2017-05-26T12:41:49.247Z,49.12
2017-05-26T12:42:50.686Z,49.32
2017-05-26T12:43:52.155Z,49.51
2017-05-26T12:44:53.565Z,49.22
2017-05-26T12:45:55.035Z,49.41
2017-05-26T12:46:56.759Z,49.51
2017-05-26T12:47:58.148Z,49.41
2017-05-26T12:48:59.598Z,49.51
2017-05-26T12:50:01.065Z,49.51
2017-05-26T12:51:02.469Z,49.41
2017-05-26T12:52:03.913Z,49.41
2017-05-26T12:53:05.347Z,49.51
2017-05-26T12:54:06.787Z,49.41
2017-05-26T12:55:08.226Z,49.22
2017-05-26T12:56:09.677Z,49.32
2017-05-26T12:57:11.212Z,49.51
2017-05-26T12:58:12.659Z,49.22
2017-05-26T12:59:14.093Z,49.51
2017-05-26T13:00:15.526Z,49.22
2017-05-26T13:01:16.969Z,49.22
2017-05-26T13:02:18.440Z,49.41
2017-05-26T13:03:19.900Z,49.32
2017-05-26T13:04:21.359Z,49.51
2017-05-26T13:05:22.809Z,49.51
2017-05-26T13:06:24.303Z,49.32
2017-05-26T13:07:25.783Z,49.41
2017-05-26T13:08:27.238Z,49.32
2017-05-26T13:09:28.729Z,49.32
2017-05-26T13:10:30.244Z,49.32
2017-05-26T13:11:31.677Z,49.32
2017-05-26T13:12:33.125Z,49.51
2017-05-26T13:13:34.558Z,49.32